sensor_id;sensor_type;location;lat;lon;timestamp;P1;durP1;ratioP1;P2;durP2;ratioP2
82760;SDS011;72498;42.022;21.444;2023-12-22T00:02:03;76.53;;;38.95;;
82760;SDS011;72498;42.022;21.444;2023-12-22T00:04:30;82.80;;;42.03;;
82760;SDS011;72498;42.022;21.444;2023-12-22T00:06:56;71.00;;;39.95;;
82760;SDS011;72498;42.022;21.444;2023-12-22T00:09:22;84.40;;;41.42;;
82760;SDS011;72498;42.022;21.444;2023-12-22T00:11:51;82.15;;;43.63;;
82760;SDS011;72498;42.022;21.444;2023-12-22T00:14:17;92.20;;;47.20;;
82760;SDS011;72498;42.022;21.444;2023-12-22T00:16:44;97.75;;;46.88;;
82760;SDS011;72498;42.022;21.444;2023-12-22T00:19:10;97.03;;;51.90;;
82760;SDS011;72498;42.022;21.444;2023-12-22T00:21:37;88.30;;;46.08;;
82760;SDS011;72498;42.022;21.444;2023-12-22T00:24:04;98.15;;;49.40;;
82760;SDS011;72498;42.022;21.444;2023-12-22T00:26:31;119.47;;;60.80;;
82760;SDS011;72498;42.022;21.444;2023-12-22T00:28:58;139.98;;;66.30;;
82760;SDS011;72498;42.022;21.444;2023-12-22T00:31:24;131.90;;;65.53;;
82760;SDS011;72498;42.022;21.444;2023-12-22T00:33:53;110.10;;;51.97;;
82760;SDS011;72498;42.022;21.444;2023-12-22T00:36:22;96.22;;;48.13;;
82760;SDS011;72498;42.022;21.444;2023-12-22T00:38:51;85.13;;;44.75;;
82760;SDS011;72498;42.022;21.444;2023-12-22T00:41:17;93.82;;;49.10;;
82760;SDS011;72498;42.022;21.444;2023-12-22T00:43:43;79.20;;;42.53;;
82760;SDS011;72498;42.022;21.444;2023-12-22T00:46:09;82.80;;;41.83;;
82760;SDS011;72498;42.022;21.444;2023-12-22T00:48:35;82.07;;;42.22;;
82760;SDS011;72498;42.022;21.444;2023-12-22T00:51:02;76.32;;;40.25;;
82760;SDS011;72498;42.022;21.444;2023-12-22T00:53:29;89.45;;;44.53;;
82760;SDS011;72498;42.022;21.444;2023-12-22T00:55:55;87.38;;;43.78;;
82760;SDS011;72498;42.022;21.444;2023-12-22T00:58:21;82.07;;;41.05;;
82760;SDS011;72498;42.022;21.444;2023-12-22T01:00:47;79.45;;;42.28;;
82760;SDS011;72498;42.022;21.444;2023-12-22T01:03:13;86.30;;;42.28;;
82760;SDS011;72498;42.022;21.444;2023-12-22T01:05:40;82.68;;;43.85;;
82760;SDS011;72498;42.022;21.444;2023-12-22T01:08:06;83.60;;;42.03;;
82760;SDS011;72498;42.022;21.444;2023-12-22T01:10:33;85.35;;;43.08;;
82760;SDS011;72498;42.022;21.444;2023-12-22T01:12:59;82.47;;;44.00;;
82760;SDS011;72498;42.022;21.444;2023-12-22T01:15:27;85.25;;;42.78;;
82760;SDS011;72498;42.022;21.444;2023-12-22T01:17:53;92.18;;;47.47;;
82760;SDS011;72498;42.022;21.444;2023-12-22T01:20:19;90.95;;;47.47;;
82760;SDS011;72498;42.022;21.444;2023-12-22T01:22:45;82.57;;;44.22;;
82760;SDS011;72498;42.022;21.444;2023-12-22T01:25:11;89.78;;;43.83;;
82760;SDS011;72498;42.022;21.444;2023-12-22T01:27:37;98.65;;;46.00;;
82760;SDS011;72498;42.022;21.444;2023-12-22T01:30:03;91.00;;;46.25;;
82760;SDS011;72498;42.022;21.444;2023-12-22T01:32:31;85.85;;;45.05;;
82760;SDS011;72498;42.022;21.444;2023-12-22T01:35:00;96.63;;;47.53;;
82760;SDS011;72498;42.022;21.444;2023-12-22T01:37:31;92.13;;;46.92;;
82760;SDS011;72498;42.022;21.444;2023-12-22T01:39:57;97.95;;;48.45;;
82760;SDS011;72498;42.022;21.444;2023-12-22T01:42:24;109.07;;;53.58;;
82760;SDS011;72498;42.022;21.444;2023-12-22T01:44:50;108.47;;;50.60;;
82760;SDS011;72498;42.022;21.444;2023-12-22T01:47:16;102.80;;;51.88;;
82760;SDS011;72498;42.022;21.444;2023-12-22T01:49:44;100.95;;;50.67;;
82760;SDS011;72498;42.022;21.444;2023-12-22T01:52:10;102.25;;;48.25;;
82760;SDS011;72498;42.022;21.444;2023-12-22T01:54:38;91.10;;;45.38;;
82760;SDS011;72498;42.022;21.444;2023-12-22T01:57:04;87.07;;;44.10;;
82760;SDS011;72498;42.022;21.444;2023-12-22T01:59:31;90.43;;;46.20;;
82760;SDS011;72498;42.022;21.444;2023-12-22T02:02:00;85.90;;;46.13;;
82760;SDS011;72498;42.022;21.444;2023-12-22T02:04:26;89.57;;;45.83;;
82760;SDS011;72498;42.022;21.444;2023-12-22T02:06:53;91.40;;;46.38;;
82760;SDS011;72498;42.022;21.444;2023-12-22T02:09:19;98.75;;;45.85;;
82760;SDS011;72498;42.022;21.444;2023-12-22T02:11:45;92.70;;;47.17;;
82760;SDS011;72498;42.022;21.444;2023-12-22T02:14:11;93.63;;;46.58;;
82760;SDS011;72498;42.022;21.444;2023-12-22T02:16:43;99.75;;;47.83;;
82760;SDS011;72498;42.022;21.444;2023-12-22T02:19:15;94.68;;;50.45;;
82760;SDS011;72498;42.022;21.444;2023-12-22T02:22:00;105.55;;;48.22;;
82760;SDS011;72498;42.022;21.444;2023-12-22T02:24:26;99.47;;;52.17;;
82760;SDS011;72498;42.022;21.444;2023-12-22T02:26:52;109.22;;;55.83;;
82760;SDS011;72498;42.022;21.444;2023-12-22T02:29:20;112.10;;;54.13;;
82760;SDS011;72498;42.022;21.444;2023-12-22T02:31:48;101.45;;;51.80;;
82760;SDS011;72498;42.022;21.444;2023-12-22T02:34:18;99.43;;;50.83;;
82760;SDS011;72498;42.022;21.444;2023-12-22T02:36:46;102.38;;;50.35;;
82760;SDS011;72498;42.022;21.444;2023-12-22T02:39:13;95.53;;;48.20;;
82760;SDS011;72498;42.022;21.444;2023-12-22T02:41:40;97.75;;;46.72;;
82760;SDS011;72498;42.022;21.444;2023-12-22T02:44:07;92.13;;;40.53;;
82760;SDS011;72498;42.022;21.444;2023-12-22T02:46:33;65.97;;;32.70;;
82760;SDS011;72498;42.022;21.444;2023-12-22T02:48:59;52.33;;;27.83;;
82760;SDS011;72498;42.022;21.444;2023-12-22T02:51:26;62.10;;;29.83;;
82760;SDS011;72498;42.022;21.444;2023-12-22T02:53:52;53.45;;;29.15;;
82760;SDS011;72498;42.022;21.444;2023-12-22T02:56:18;53.60;;;27.92;;
82760;SDS011;72498;42.022;21.444;2023-12-22T02:58:45;57.17;;;28.83;;
82760;SDS011;72498;42.022;21.444;2023-12-22T03:01:11;54.25;;;29.23;;
82760;SDS011;72498;42.022;21.444;2023-12-22T03:03:37;52.78;;;29.35;;
82760;SDS011;72498;42.022;21.444;2023-12-22T03:06:03;50.65;;;27.27;;
82760;SDS011;72498;42.022;21.444;2023-12-22T03:08:29;53.17;;;28.35;;
82760;SDS011;72498;42.022;21.444;2023-12-22T03:10:57;52.13;;;28.35;;
82760;SDS011;72498;42.022;21.444;2023-12-22T03:13:23;44.72;;;27.15;;
82760;SDS011;72498;42.022;21.444;2023-12-22T03:15:49;44.40;;;24.23;;
82760;SDS011;72498;42.022;21.444;2023-12-22T03:18:15;48.38;;;24.67;;
82760;SDS011;72498;42.022;21.444;2023-12-22T03:20:41;43.53;;;23.00;;
82760;SDS011;72498;42.022;21.444;2023-12-22T03:23:07;45.42;;;22.98;;
82760;SDS011;72498;42.022;21.444;2023-12-22T03:25:34;35.83;;;20.73;;
82760;SDS011;72498;42.022;21.444;2023-12-22T03:28:01;38.40;;;21.83;;
82760;SDS011;72498;42.022;21.444;2023-12-22T03:30:27;39.45;;;21.52;;
82760;SDS011;72498;42.022;21.444;2023-12-22T03:32:54;40.83;;;23.33;;
82760;SDS011;72498;42.022;21.444;2023-12-22T03:35:20;44.80;;;21.77;;
82760;SDS011;72498;42.022;21.444;2023-12-22T03:37:46;43.67;;;23.50;;
82760;SDS011;72498;42.022;21.444;2023-12-22T03:40:12;41.65;;;21.55;;
82760;SDS011;72498;42.022;21.444;2023-12-22T03:42:38;39.17;;;22.88;;
82760;SDS011;72498;42.022;21.444;2023-12-22T03:45:05;42.55;;;22.10;;
82760;SDS011;72498;42.022;21.444;2023-12-22T03:47:33;42.90;;;23.45;;
82760;SDS011;72498;42.022;21.444;2023-12-22T03:49:59;40.88;;;23.13;;
82760;SDS011;72498;42.022;21.444;2023-12-22T03:52:26;42.58;;;23.98;;
82760;SDS011;72498;42.022;21.444;2023-12-22T03:54:52;42.53;;;23.35;;
82760;SDS011;72498;42.022;21.444;2023-12-22T03:57:18;41.72;;;24.02;;
82760;SDS011;72498;42.022;21.444;2023-12-22T03:59:44;44.65;;;23.55;;
82760;SDS011;72498;42.022;21.444;2023-12-22T04:02:12;44.55;;;23.83;;
82760;SDS011;72498;42.022;21.444;2023-12-22T04:04:39;43.03;;;23.20;;
82760;SDS011;72498;42.022;21.444;2023-12-22T04:07:05;47.60;;;25.13;;
82760;SDS011;72498;42.022;21.444;2023-12-22T04:09:31;48.40;;;25.20;;
82760;SDS011;72498;42.022;21.444;2023-12-22T04:11:57;48.08;;;23.67;;
82760;SDS011;72498;42.022;21.444;2023-12-22T04:14:23;48.10;;;25.08;;
82760;SDS011;72498;42.022;21.444;2023-12-22T04:16:50;44.47;;;24.20;;
82760;SDS011;72498;42.022;21.444;2023-12-22T04:19:17;42.80;;;23.63;;
82760;SDS011;72498;42.022;21.444;2023-12-22T04:21:44;48.75;;;24.42;;
82760;SDS011;72498;42.022;21.444;2023-12-22T04:24:10;44.42;;;24.27;;
82760;SDS011;72498;42.022;21.444;2023-12-22T04:26:36;46.53;;;25.50;;
82760;SDS011;72498;42.022;21.444;2023-12-22T04:29:02;52.53;;;25.75;;
82760;SDS011;72498;42.022;21.444;2023-12-22T04:31:28;53.63;;;26.15;;
82760;SDS011;72498;42.022;21.444;2023-12-22T04:33:54;47.05;;;25.02;;
82760;SDS011;72498;42.022;21.444;2023-12-22T04:36:20;44.47;;;23.65;;
82760;SDS011;72498;42.022;21.444;2023-12-22T04:38:47;46.10;;;24.67;;
82760;SDS011;72498;42.022;21.444;2023-12-22T04:41:13;46.63;;;25.63;;
82760;SDS011;72498;42.022;21.444;2023-12-22T04:43:39;48.20;;;25.30;;
82760;SDS011;72498;42.022;21.444;2023-12-22T04:46:05;48.00;;;26.33;;
82760;SDS011;72498;42.022;21.444;2023-12-22T04:48:31;49.88;;;26.80;;
82760;SDS011;72498;42.022;21.444;2023-12-22T04:50:58;45.92;;;25.13;;
82760;SDS011;72498;42.022;21.444;2023-12-22T04:53:24;46.08;;;27.95;;
82760;SDS011;72498;42.022;21.444;2023-12-22T04:55:50;49.80;;;28.08;;
82760;SDS011;72498;42.022;21.444;2023-12-22T04:58:16;48.08;;;26.23;;
82760;SDS011;72498;42.022;21.444;2023-12-22T05:00:42;54.58;;;28.15;;
82760;SDS011;72498;42.022;21.444;2023-12-22T05:03:09;51.63;;;29.08;;
82760;SDS011;72498;42.022;21.444;2023-12-22T05:05:35;60.85;;;29.73;;
82760;SDS011;72498;42.022;21.444;2023-12-22T05:08:01;56.15;;;30.67;;
82760;SDS011;72498;42.022;21.444;2023-12-22T05:10:27;57.13;;;31.90;;
82760;SDS011;72498;42.022;21.444;2023-12-22T05:12:54;55.67;;;30.83;;
82760;SDS011;72498;42.022;21.444;2023-12-22T05:15:20;68.47;;;35.47;;
82760;SDS011;72498;42.022;21.444;2023-12-22T05:17:46;62.13;;;36.42;;
82760;SDS011;72498;42.022;21.444;2023-12-22T05:20:12;73.10;;;37.50;;
82760;SDS011;72498;42.022;21.444;2023-12-22T05:22:39;65.93;;;37.20;;
82760;SDS011;72498;42.022;21.444;2023-12-22T05:25:06;69.47;;;38.05;;
82760;SDS011;72498;42.022;21.444;2023-12-22T05:27:38;67.05;;;37.22;;
82760;SDS011;72498;42.022;21.444;2023-12-22T05:30:24;53.58;;;30.50;;
82760;SDS011;72498;42.022;21.444;2023-12-22T05:32:50;73.50;;;46.53;;
82760;SDS011;72498;42.022;21.444;2023-12-22T05:35:16;54.75;;;32.45;;
82760;SDS011;72498;42.022;21.444;2023-12-22T05:37:42;58.50;;;30.23;;
82760;SDS011;72498;42.022;21.444;2023-12-22T05:40:09;52.80;;;29.95;;
82760;SDS011;72498;42.022;21.444;2023-12-22T05:42:36;58.50;;;33.67;;
82760;SDS011;72498;42.022;21.444;2023-12-22T05:45:03;44.22;;;24.25;;
82760;SDS011;72498;42.022;21.444;2023-12-22T05:47:29;46.38;;;24.70;;
82760;SDS011;72498;42.022;21.444;2023-12-22T05:49:55;47.95;;;25.15;;
82760;SDS011;72498;42.022;21.444;2023-12-22T05:52:22;44.70;;;22.10;;
82760;SDS011;72498;42.022;21.444;2023-12-22T05:54:48;61.53;;;27.40;;
82760;SDS011;72498;42.022;21.444;2023-12-22T05:57:15;76.90;;;36.60;;
82760;SDS011;72498;42.022;21.444;2023-12-22T05:59:42;61.22;;;33.20;;
82760;SDS011;72498;42.022;21.444;2023-12-22T06:02:09;68.00;;;31.05;;
82760;SDS011;72498;42.022;21.444;2023-12-22T06:04:35;71.57;;;36.85;;
82760;SDS011;72498;42.022;21.444;2023-12-22T06:07:01;71.85;;;39.55;;
82760;SDS011;72498;42.022;21.444;2023-12-22T06:09:28;88.20;;;45.40;;
82760;SDS011;72498;42.022;21.444;2023-12-22T06:11:54;106.90;;;53.20;;
82760;SDS011;72498;42.022;21.444;2023-12-22T06:14:20;79.68;;;42.58;;
82760;SDS011;72498;42.022;21.444;2023-12-22T06:16:46;115.47;;;59.47;;
82760;SDS011;72498;42.022;21.444;2023-12-22T06:19:13;101.40;;;53.63;;
82760;SDS011;72498;42.022;21.444;2023-12-22T06:21:40;93.90;;;50.15;;
82760;SDS011;72498;42.022;21.444;2023-12-22T06:24:07;107.00;;;58.50;;
82760;SDS011;72498;42.022;21.444;2023-12-22T06:29:36;91.88;;;49.78;;
82760;SDS011;72498;42.022;21.444;2023-12-22T06:32:10;78.18;;;44.92;;
82760;SDS011;72498;42.022;21.444;2023-12-22T06:38:00;109.32;;;67.32;;
82760;SDS011;72498;42.022;21.444;2023-12-22T06:40:53;62.10;;;33.40;;
82760;SDS011;72498;42.022;21.444;2023-12-22T06:43:34;76.82;;;41.50;;
82760;SDS011;72498;42.022;21.444;2023-12-22T06:46:14;62.58;;;34.85;;
82760;SDS011;72498;42.022;21.444;2023-12-22T07:17:32;79.35;;;41.45;;
82760;SDS011;72498;42.022;21.444;2023-12-22T07:20:02;91.18;;;44.10;;
82760;SDS011;72498;42.022;21.444;2023-12-22T07:28:10;90.82;;;45.70;;
82760;SDS011;72498;42.022;21.444;2023-12-22T07:30:37;78.65;;;38.63;;
82760;SDS011;72498;42.022;21.444;2023-12-22T07:33:13;86.88;;;46.35;;
82760;SDS011;72498;42.022;21.444;2023-12-22T07:35:43;88.82;;;48.83;;
82760;SDS011;72498;42.022;21.444;2023-12-22T07:38:12;78.78;;;40.45;;
82760;SDS011;72498;42.022;21.444;2023-12-22T07:40:39;65.53;;;35.03;;
82760;SDS011;72498;42.022;21.444;2023-12-22T07:43:15;61.40;;;32.72;;
82760;SDS011;72498;42.022;21.444;2023-12-22T07:46:02;64.45;;;34.38;;
82760;SDS011;72498;42.022;21.444;2023-12-22T08:02:03;55.13;;;31.25;;
82760;SDS011;72498;42.022;21.444;2023-12-22T08:04:35;62.38;;;34.13;;
82760;SDS011;72498;42.022;21.444;2023-12-22T08:07:36;52.25;;;29.40;;
82760;SDS011;72498;42.022;21.444;2023-12-22T08:10:07;50.30;;;22.10;;
82760;SDS011;72498;42.022;21.444;2023-12-22T08:12:35;66.95;;;38.75;;
82760;SDS011;72498;42.022;21.444;2023-12-22T08:15:08;74.13;;;45.35;;
82760;SDS011;72498;42.022;21.444;2023-12-22T08:17:57;72.13;;;44.40;;
82760;SDS011;72498;42.022;21.444;2023-12-22T08:20:26;74.00;;;45.67;;
82760;SDS011;72498;42.022;21.444;2023-12-22T08:23:08;79.72;;;43.92;;
82760;SDS011;72498;42.022;21.444;2023-12-22T08:25:41;75.68;;;37.70;;
82760;SDS011;72498;42.022;21.444;2023-12-22T08:28:21;80.78;;;49.00;;
82760;SDS011;72498;42.022;21.444;2023-12-22T08:30:47;64.70;;;33.42;;
82760;SDS011;72498;42.022;21.444;2023-12-22T08:33:27;77.53;;;43.33;;
82760;SDS011;72498;42.022;21.444;2023-12-22T09:41:32;69.72;;;31.95;;
82760;SDS011;72498;42.022;21.444;2023-12-22T09:44:10;60.17;;;30.48;;
82760;SDS011;72498;42.022;21.444;2023-12-22T09:46:49;73.30;;;38.45;;
82760;SDS011;72498;42.022;21.444;2023-12-22T09:49:44;65.00;;;37.30;;
82760;SDS011;72498;42.022;21.444;2023-12-22T09:52:38;73.43;;;36.70;;
82760;SDS011;72498;42.022;21.444;2023-12-22T09:55:25;64.57;;;33.58;;
82760;SDS011;72498;42.022;21.444;2023-12-22T09:57:54;66.80;;;34.25;;
82760;SDS011;72498;42.022;21.444;2023-12-22T10:00:29;63.03;;;31.13;;
82760;SDS011;72498;42.022;21.444;2023-12-22T10:45:05;64.82;;;28.80;;
82760;SDS011;72498;42.022;21.444;2023-12-22T10:47:31;64.85;;;29.92;;
82760;SDS011;72498;42.022;21.444;2023-12-22T10:50:01;85.47;;;39.30;;
82760;SDS011;72498;42.022;21.444;2023-12-22T10:52:29;60.72;;;31.25;;
82760;SDS011;72498;42.022;21.444;2023-12-22T10:54:58;63.33;;;31.35;;
82760;SDS011;72498;42.022;21.444;2023-12-22T10:57:27;64.95;;;32.67;;
82760;SDS011;72498;42.022;21.444;2023-12-22T10:59:53;88.65;;;50.30;;
82760;SDS011;72498;42.022;21.444;2023-12-22T11:02:27;68.15;;;34.60;;
82760;SDS011;72498;42.022;21.444;2023-12-22T11:05:03;90.35;;;48.83;;
82760;SDS011;72498;42.022;21.444;2023-12-22T11:07:54;55.70;;;30.55;;
82760;SDS011;72498;42.022;21.444;2023-12-22T11:10:33;95.30;;;52.30;;
82760;SDS011;72498;42.022;21.444;2023-12-22T11:12:59;109.28;;;58.22;;
82760;SDS011;72498;42.022;21.444;2023-12-22T11:15:32;87.43;;;41.35;;
82760;SDS011;72498;42.022;21.444;2023-12-22T11:18:00;80.22;;;36.45;;
82760;SDS011;72498;42.022;21.444;2023-12-22T11:20:37;95.82;;;45.47;;
82760;SDS011;72498;42.022;21.444;2023-12-22T11:23:06;72.30;;;37.60;;
82760;SDS011;72498;42.022;21.444;2023-12-22T11:28:18;86.18;;;43.60;;
82760;SDS011;72498;42.022;21.444;2023-12-22T11:30:51;77.53;;;38.33;;
82760;SDS011;72498;42.022;21.444;2023-12-22T11:33:18;68.57;;;38.28;;
82760;SDS011;72498;42.022;21.444;2023-12-22T11:35:46;68.15;;;35.90;;
82760;SDS011;72498;42.022;21.444;2023-12-22T11:38:15;97.38;;;49.90;;
82760;SDS011;72498;42.022;21.444;2023-12-22T11:40:44;76.60;;;35.72;;
82760;SDS011;72498;42.022;21.444;2023-12-22T11:46:02;74.50;;;32.33;;
82760;SDS011;72498;42.022;21.444;2023-12-22T11:48:30;84.10;;;41.65;;
82760;SDS011;72498;42.022;21.444;2023-12-22T11:53:33;91.30;;;49.15;;
82760;SDS011;72498;42.022;21.444;2023-12-22T17:08:17;45.60;;;27.08;;
82760;SDS011;72498;42.022;21.444;2023-12-22T18:29:10;20.20;;;10.90;;
82760;SDS011;72498;42.022;21.444;2023-12-22T18:31:43;14.40;;;9.02;;
